Airfield :
LOGIN :

Register | Disclaimer

   EN    FR    IT 

 










Legend :    VFR   Marginal VFR   IFR   Intensive IFR   Very Intensive IFR
Visi :
Ceiling :
>= 8 km
>= 3000ft
5 to 8 km
1000 to 3000 ft
1500m to 5 km
500 to 1000 ft
800 to 1500m
200 to 500 ft
< 800m
< 200 ft
Symbols :   Thunderstorms  Fog  Heavy snow  Heavy precipitations  Wind > 20 kt
SIGMETs :     Misc.  Thunderstorms  Icing  Turbulence  Mountain Waves  Volcanic Ashes






- Airport Elevation : 101 ft
- IATA code : GLO


EGBJ - Gloucestershire

CURRENT METAR :
  • 281750Z 15010KT 9999 VCSH FEW025 16/13 Q1009

EXPIRED METARs :
  • 281720Z 15008KT 9999 VCSH FEW026 17/13 Q1010
  • 281650Z 17007KT 9999 -RA FEW030 17/13 Q1010
  • 281550Z 18009KT 9999 FEW032 18/12 Q1011
  • 281520Z 17009KT 9999 FEW030 18/13 Q1011

TAF TAF EGBJ
Valid from the 28 at 15:00 until the 28 at 19:00 UTC


281359Z 2815/2819 18009KT 9999 SCT030
TEMPO 2815/2819 6000 RA
PROB30
TEMPO 2816/2819 3000 +RA RADZ BKN014



MET'MAP, your aeronautical weather chart ! - Copyright ORBIFLY December 2007 - Disclaimer

ORBIFLY MET'MAP TEAM :

Programming & Development : Alexandra Zaïnal
Original concept : Baudouin d'Aumeries
Technical & hardware support : Manuel Goepfert
Assistance : Marc-Olivier Méhu




SOURCES & CREDITS :

   NOAA